XS18 weather

Tom J Moore Farm Airport
Millican, Texas, United States

Public forecast

Using degrees Fahrenheit for public forecast. Weather courtesy of forecast.io.

Closest aviation weather report (METAR) to Tom J Moore Farm Airport

Closest report is Brenham Municipal Airport, 12.6 nm (23.4 km) SW. Retrieved 2020/04/04 16:35 UTC (25 minutes ago):

K11R 041635Z AUTO 36012KT 10SM RA OVC004 10/10 A3005 RMK AO2 LTG DSNT SE AND S P0002 T01030098

Closest aviation forecast (TAF) to Tom J Moore Farm Airport

Closest forecast is Easterwood Field, 14.2 nm (26.3 km) NNW. Retrieved 2020/04/04 12:28 UTC (5 hours ago):

TAF KCLL 041126Z 0412/0512 35010KT P6SM OVC004 FM041300 36009KT 3SM BR VCTS BKN004 OVC010CB FM041900 35008KT 5SM -SHRA VCSH OVC007 FM050100 02006KT P6SM OVC006